Nagykanizsa, Hungary
Current Conditions -  °F | °C
As of 10:45 PM on Saturday 25 Oct 2014 (Local Time) from LHSM Reporting Station
Moderate Fog Moderate Fog  
Wind Chill: 32°   Ceiling: Unl
Heat Index: 36°   Visibility: 0.43mi
Dew Point: 34°   Wind: 5mph
Humidity: 93%   Direction: 320°NW
Pressure: 30.3"   Gusts: NA
Location:  46.46°N, 16.99°E
Report Text: LHSM 252045Z 32004KT 0700 FG NSC 02/01 Q1026
Loading
Personal Weather Stations






























Interactive Weather Map
Tropical Storm Tracking
New forecast layout! Learn more

10-Day Weather Forecast

Advertisements
Track Severe Weather on mobile